sensor_id;sensor_type;location;lat;lon;timestamp;temperature;humidity
5940;DHT22;2995;-31.998;115.906;2023-02-26T00:01:59;24.90;99.90
5940;DHT22;2995;-31.998;115.906;2023-02-26T00:04:30;25.10;99.90
5940;DHT22;2995;-31.998;115.906;2023-02-26T00:07:02;25.20;99.90
5940;DHT22;2995;-31.998;115.906;2023-02-26T00:09:36;25.50;99.90
5940;DHT22;2995;-31.998;115.906;2023-02-26T00:12:11;25.50;99.90
5940;DHT22;2995;-31.998;115.906;2023-02-26T00:14:45;25.80;99.90
5940;DHT22;2995;-31.998;115.906;2023-02-26T00:17:30;25.80;99.90
5940;DHT22;2995;-31.998;115.906;2023-02-26T00:20:04;26.00;99.90
5940;DHT22;2995;-31.998;115.906;2023-02-26T00:22:38;26.30;99.90
5940;DHT22;2995;-31.998;115.906;2023-02-26T00:25:13;26.30;99.90
5940;DHT22;2995;-31.998;115.906;2023-02-26T00:27:45;26.60;99.90
5940;DHT22;2995;-31.998;115.906;2023-02-26T00:30:17;26.80;99.90
5940;DHT22;2995;-31.998;115.906;2023-02-26T00:32:51;26.90;99.90
5940;DHT22;2995;-31.998;115.906;2023-02-26T00:35:23;27.10;99.90
5940;DHT22;2995;-31.998;115.906;2023-02-26T00:38:00;26.90;99.90
5940;DHT22;2995;-31.998;115.906;2023-02-26T00:40:40;27.30;99.90
5940;DHT22;2995;-31.998;115.906;2023-02-26T00:43:16;27.50;99.90
5940;DHT22;2995;-31.998;115.906;2023-02-26T00:46:01;27.70;99.90
5940;DHT22;2995;-31.998;115.906;2023-02-26T00:48:43;27.90;99.90
5940;DHT22;2995;-31.998;115.906;2023-02-26T00:51:22;27.90;99.90
5940;DHT22;2995;-31.998;115.906;2023-02-26T00:54:02;27.80;99.90
5940;DHT22;2995;-31.998;115.906;2023-02-26T00:56:36;27.80;99.90
5940;DHT22;2995;-31.998;115.906;2023-02-26T00:59:07;28.00;99.90
5940;DHT22;2995;-31.998;115.906;2023-02-26T01:01:39;28.00;99.90
5940;DHT22;2995;-31.998;115.906;2023-02-26T01:04:11;28.10;99.90
5940;DHT22;2995;-31.998;115.906;2023-02-26T01:06:44;28.30;99.90
5940;DHT22;2995;-31.998;115.906;2023-02-26T01:09:23;28.40;99.90
5940;DHT22;2995;-31.998;115.906;2023-02-26T01:11:58;28.40;99.90
5940;DHT22;2995;-31.998;115.906;2023-02-26T01:14:31;28.50;99.90
5940;DHT22;2995;-31.998;115.906;2023-02-26T01:17:07;28.50;99.90
5940;DHT22;2995;-31.998;115.906;2023-02-26T01:19:43;28.60;99.90
5940;DHT22;2995;-31.998;115.906;2023-02-26T01:22:21;28.60;99.90
5940;DHT22;2995;-31.998;115.906;2023-02-26T01:25:01;28.60;99.90
5940;DHT22;2995;-31.998;115.906;2023-02-26T01:27:36;28.80;99.90
5940;DHT22;2995;-31.998;115.906;2023-02-26T01:30:08;28.70;99.90
5940;DHT22;2995;-31.998;115.906;2023-02-26T01:32:44;28.60;99.90
5940;DHT22;2995;-31.998;115.906;2023-02-26T01:35:27;28.80;99.90
5940;DHT22;2995;-31.998;115.906;2023-02-26T01:38:03;28.90;99.90
5940;DHT22;2995;-31.998;115.906;2023-02-26T01:40:49;29.10;99.90
5940;DHT22;2995;-31.998;115.906;2023-02-26T01:43:33;29.40;99.90
5940;DHT22;2995;-31.998;115.906;2023-02-26T01:46:12;29.50;99.90
5940;DHT22;2995;-31.998;115.906;2023-02-26T01:48:50;29.50;99.90
5940;DHT22;2995;-31.998;115.906;2023-02-26T01:51:42;29.60;99.90
5940;DHT22;2995;-31.998;115.906;2023-02-26T01:54:15;29.70;99.90
5940;DHT22;2995;-31.998;115.906;2023-02-26T01:56:48;29.50;99.90
5940;DHT22;2995;-31.998;115.906;2023-02-26T01:59:22;29.60;99.90
5940;DHT22;2995;-31.998;115.906;2023-02-26T02:01:55;29.60;99.90
5940;DHT22;2995;-31.998;115.906;2023-02-26T02:04:27;29.60;99.90
5940;DHT22;2995;-31.998;115.906;2023-02-26T02:07:00;29.70;99.90
5940;DHT22;2995;-31.998;115.906;2023-02-26T02:09:32;29.90;99.90
5940;DHT22;2995;-31.998;115.906;2023-02-26T02:12:22;29.60;99.90
5940;DHT22;2995;-31.998;115.906;2023-02-26T02:15:06;29.40;99.90
5940;DHT22;2995;-31.998;115.906;2023-02-26T02:17:49;29.50;99.90
5940;DHT22;2995;-31.998;115.906;2023-02-26T02:20:51;29.70;99.90
5940;DHT22;2995;-31.998;115.906;2023-02-26T02:23:32;29.70;99.90
5940;DHT22;2995;-31.998;115.906;2023-02-26T02:26:40;29.90;99.90
5940;DHT22;2995;-31.998;115.906;2023-02-26T02:32:20;30.50;99.90
5940;DHT22;2995;-31.998;115.906;2023-02-26T02:34:57;30.20;99.90
5940;DHT22;2995;-31.998;115.906;2023-02-26T02:37:35;30.10;99.90
5940;DHT22;2995;-31.998;115.906;2023-02-26T02:40:09;30.40;99.90
5940;DHT22;2995;-31.998;115.906;2023-02-26T02:42:45;30.60;99.90
5940;DHT22;2995;-31.998;115.906;2023-02-26T02:45:19;30.90;99.90
5940;DHT22;2995;-31.998;115.906;2023-02-26T02:47:58;31.00;99.90
5940;DHT22;2995;-31.998;115.906;2023-02-26T02:50:37;30.90;99.90
5940;DHT22;2995;-31.998;115.906;2023-02-26T02:53:13;30.80;99.90
5940;DHT22;2995;-31.998;115.906;2023-02-26T02:55:49;31.20;99.90
5940;DHT22;2995;-31.998;115.906;2023-02-26T02:58:24;31.30;99.90
5940;DHT22;2995;-31.998;115.906;2023-02-26T03:00:59;31.50;99.90
5940;DHT22;2995;-31.998;115.906;2023-02-26T03:03:37;31.50;99.10
5940;DHT22;2995;-31.998;115.906;2023-02-26T03:06:10;31.90;99.00
5940;DHT22;2995;-31.998;115.906;2023-02-26T03:08:43;31.90;97.50
5940;DHT22;2995;-31.998;115.906;2023-02-26T03:11:16;32.00;97.50
5940;DHT22;2995;-31.998;115.906;2023-02-26T03:13:48;31.90;98.10
5940;DHT22;2995;-31.998;115.906;2023-02-26T03:16:34;31.70;97.70
5940;DHT22;2995;-31.998;115.906;2023-02-26T03:19:14;32.00;97.70
5940;DHT22;2995;-31.998;115.906;2023-02-26T03:21:57;32.10;97.60
5940;DHT22;2995;-31.998;115.906;2023-02-26T03:24:36;32.30;96.30
5940;DHT22;2995;-31.998;115.906;2023-02-26T03:27:11;32.60;95.60
5940;DHT22;2995;-31.998;115.906;2023-02-26T03:29:48;32.40;96.00
5940;DHT22;2995;-31.998;115.906;2023-02-26T03:32:23;32.50;95.20
5940;DHT22;2995;-31.998;115.906;2023-02-26T03:35:01;32.50;95.20
5940;DHT22;2995;-31.998;115.906;2023-02-26T03:37:36;32.40;95.40
5940;DHT22;2995;-31.998;115.906;2023-02-26T03:40:12;32.30;94.90
5940;DHT22;2995;-31.998;115.906;2023-02-26T03:42:48;32.20;94.20
5940;DHT22;2995;-31.998;115.906;2023-02-26T03:45:24;32.40;95.00
5940;DHT22;2995;-31.998;115.906;2023-02-26T03:47:58;32.90;94.40
5940;DHT22;2995;-31.998;115.906;2023-02-26T03:50:34;32.90;93.20
5940;DHT22;2995;-31.998;115.906;2023-02-26T03:53:09;32.50;92.70
5940;DHT22;2995;-31.998;115.906;2023-02-26T03:55:46;32.80;93.80
5940;DHT22;2995;-31.998;115.906;2023-02-26T03:58:19;33.00;93.50
5940;DHT22;2995;-31.998;115.906;2023-02-26T04:00:56;33.20;92.60
5940;DHT22;2995;-31.998;115.906;2023-02-26T04:03:32;33.00;92.10
5940;DHT22;2995;-31.998;115.906;2023-02-26T04:06:08;32.90;92.40
5940;DHT22;2995;-31.998;115.906;2023-02-26T04:08:41;33.20;92.90
5940;DHT22;2995;-31.998;115.906;2023-02-26T04:11:15;33.20;91.90
5940;DHT22;2995;-31.998;115.906;2023-02-26T04:13:47;33.50;91.90
5940;DHT22;2995;-31.998;115.906;2023-02-26T04:16:19;33.70;91.20
5940;DHT22;2995;-31.998;115.906;2023-02-26T04:18:50;33.60;91.40
5940;DHT22;2995;-31.998;115.906;2023-02-26T04:21:24;33.50;91.90
5940;DHT22;2995;-31.998;115.906;2023-02-26T04:23:55;33.60;91.60
5940;DHT22;2995;-31.998;115.906;2023-02-26T04:26:26;33.00;91.10
5940;DHT22;2995;-31.998;115.906;2023-02-26T04:28:57;33.20;91.00
5940;DHT22;2995;-31.998;115.906;2023-02-26T04:31:28;33.20;90.60
5940;DHT22;2995;-31.998;115.906;2023-02-26T04:34:00;33.20;90.00
5940;DHT22;2995;-31.998;115.906;2023-02-26T04:36:33;33.20;89.50
5940;DHT22;2995;-31.998;115.906;2023-02-26T04:39:04;33.30;90.80
5940;DHT22;2995;-31.998;115.906;2023-02-26T04:41:37;33.60;90.10
5940;DHT22;2995;-31.998;115.906;2023-02-26T04:44:09;33.40;89.70
5940;DHT22;2995;-31.998;115.906;2023-02-26T04:46:41;33.50;90.60
5940;DHT22;2995;-31.998;115.906;2023-02-26T04:49:16;33.60;88.90
5940;DHT22;2995;-31.998;115.906;2023-02-26T04:51:49;33.80;89.80
5940;DHT22;2995;-31.998;115.906;2023-02-26T04:54:21;34.10;88.30
5940;DHT22;2995;-31.998;115.906;2023-02-26T04:56:52;34.20;87.10
5940;DHT22;2995;-31.998;115.906;2023-02-26T04:59:23;34.30;88.80
5940;DHT22;2995;-31.998;115.906;2023-02-26T05:01:54;34.40;86.50
5940;DHT22;2995;-31.998;115.906;2023-02-26T05:04:26;34.00;87.60
5940;DHT22;2995;-31.998;115.906;2023-02-26T05:06:59;34.40;89.20
5940;DHT22;2995;-31.998;115.906;2023-02-26T05:09:31;34.50;85.80
5940;DHT22;2995;-31.998;115.906;2023-02-26T05:12:02;34.50;86.50
5940;DHT22;2995;-31.998;115.906;2023-02-26T05:14:33;34.50;85.00
5940;DHT22;2995;-31.998;115.906;2023-02-26T05:17:05;34.30;82.80
5940;DHT22;2995;-31.998;115.906;2023-02-26T05:19:36;34.30;83.60
5940;DHT22;2995;-31.998;115.906;2023-02-26T05:22:09;34.20;83.10
5940;DHT22;2995;-31.998;115.906;2023-02-26T05:24:41;34.10;82.60
5940;DHT22;2995;-31.998;115.906;2023-02-26T05:27:13;34.10;84.20
5940;DHT22;2995;-31.998;115.906;2023-02-26T05:29:44;34.20;84.00
5940;DHT22;2995;-31.998;115.906;2023-02-26T05:32:16;34.40;81.60
5940;DHT22;2995;-31.998;115.906;2023-02-26T05:34:47;34.40;82.60
5940;DHT22;2995;-31.998;115.906;2023-02-26T05:37:20;34.30;81.30
5940;DHT22;2995;-31.998;115.906;2023-02-26T05:39:51;34.00;81.20
5940;DHT22;2995;-31.998;115.906;2023-02-26T05:42:23;34.30;80.80
5940;DHT22;2995;-31.998;115.906;2023-02-26T05:44:54;34.50;81.10
5940;DHT22;2995;-31.998;115.906;2023-02-26T05:47:25;34.80;81.20
5940;DHT22;2995;-31.998;115.906;2023-02-26T05:49:57;34.80;78.60
5940;DHT22;2995;-31.998;115.906;2023-02-26T05:52:30;34.80;79.50
5940;DHT22;2995;-31.998;115.906;2023-02-26T05:55:01;34.50;79.30
5940;DHT22;2995;-31.998;115.906;2023-02-26T05:57:33;34.20;80.80
5940;DHT22;2995;-31.998;115.906;2023-02-26T06:00:06;34.50;80.60
5940;DHT22;2995;-31.998;115.906;2023-02-26T06:02:38;34.90;79.60
5940;DHT22;2995;-31.998;115.906;2023-02-26T06:05:10;35.10;78.00
5940;DHT22;2995;-31.998;115.906;2023-02-26T06:07:43;35.10;77.50
5940;DHT22;2995;-31.998;115.906;2023-02-26T06:10:15;35.30;78.10
5940;DHT22;2995;-31.998;115.906;2023-02-26T06:12:46;35.40;77.90
5940;DHT22;2995;-31.998;115.906;2023-02-26T06:15:17;35.00;77.10
5940;DHT22;2995;-31.998;115.906;2023-02-26T06:17:49;35.00;77.10
5940;DHT22;2995;-31.998;115.906;2023-02-26T06:20:20;35.10;77.80
5940;DHT22;2995;-31.998;115.906;2023-02-26T06:22:54;35.00;77.20
5940;DHT22;2995;-31.998;115.906;2023-02-26T06:25:25;35.00;75.70
5940;DHT22;2995;-31.998;115.906;2023-02-26T06:27:56;34.80;76.20
5940;DHT22;2995;-31.998;115.906;2023-02-26T06:30:27;35.10;78.40
5940;DHT22;2995;-31.998;115.906;2023-02-26T06:32:59;35.00;75.20
5940;DHT22;2995;-31.998;115.906;2023-02-26T06:35:30;34.60;75.70
5940;DHT22;2995;-31.998;115.906;2023-02-26T06:38:03;34.80;77.00
5940;DHT22;2995;-31.998;115.906;2023-02-26T06:40:34;34.90;76.80
5940;DHT22;2995;-31.998;115.906;2023-02-26T06:43:05;34.90;75.50
5940;DHT22;2995;-31.998;115.906;2023-02-26T06:45:37;35.00;75.10
5940;DHT22;2995;-31.998;115.906;2023-02-26T06:48:08;35.10;76.00
5940;DHT22;2995;-31.998;115.906;2023-02-26T06:50:39;35.10;74.40
5940;DHT22;2995;-31.998;115.906;2023-02-26T06:53:13;35.30;76.10
5940;DHT22;2995;-31.998;115.906;2023-02-26T06:55:45;35.30;74.60
5940;DHT22;2995;-31.998;115.906;2023-02-26T06:58:17;35.00;74.30
5940;DHT22;2995;-31.998;115.906;2023-02-26T07:00:49;35.00;74.00
5940;DHT22;2995;-31.998;115.906;2023-02-26T07:03:21;35.00;73.90
5940;DHT22;2995;-31.998;115.906;2023-02-26T07:05:53;35.10;75.60
5940;DHT22;2995;-31.998;115.906;2023-02-26T07:08:28;35.20;74.00
5940;DHT22;2995;-31.998;115.906;2023-02-26T07:11:01;35.20;74.10
5940;DHT22;2995;-31.998;115.906;2023-02-26T07:13:32;34.80;73.90
5940;DHT22;2995;-31.998;115.906;2023-02-26T07:16:03;34.90;74.30
5940;DHT22;2995;-31.998;115.906;2023-02-26T07:18:35;35.00;74.50
5940;DHT22;2995;-31.998;115.906;2023-02-26T07:21:07;34.70;74.00
5940;DHT22;2995;-31.998;115.906;2023-02-26T07:23:40;35.10;73.60
5940;DHT22;2995;-31.998;115.906;2023-02-26T07:26:11;35.30;74.40
5940;DHT22;2995;-31.998;115.906;2023-02-26T07:28:47;35.20;73.60
5940;DHT22;2995;-31.998;115.906;2023-02-26T07:31:18;35.40;73.20
5940;DHT22;2995;-31.998;115.906;2023-02-26T07:33:49;35.50;72.30
5940;DHT22;2995;-31.998;115.906;2023-02-26T07:36:21;35.50;71.50
5940;DHT22;2995;-31.998;115.906;2023-02-26T07:38:54;35.40;71.40
5940;DHT22;2995;-31.998;115.906;2023-02-26T07:41:25;35.30;70.80
5940;DHT22;2995;-31.998;115.906;2023-02-26T07:43:57;35.30;71.20
5940;DHT22;2995;-31.998;115.906;2023-02-26T07:46:28;35.30;72.00
5940;DHT22;2995;-31.998;115.906;2023-02-26T07:48:59;35.30;77.20
5940;DHT22;2995;-31.998;115.906;2023-02-26T07:51:30;35.10;72.40
5940;DHT22;2995;-31.998;115.906;2023-02-26T07:54:04;35.10;79.50
5940;DHT22;2995;-31.998;115.906;2023-02-26T07:56:35;34.80;84.80
5940;DHT22;2995;-31.998;115.906;2023-02-26T07:59:06;34.70;85.50
5940;DHT22;2995;-31.998;115.906;2023-02-26T08:01:38;34.60;84.70
5940;DHT22;2995;-31.998;115.906;2023-02-26T08:04:09;34.50;86.40
5940;DHT22;2995;-31.998;115.906;2023-02-26T08:06:40;34.40;87.70
5940;DHT22;2995;-31.998;115.906;2023-02-26T08:09:14;34.30;88.10
5940;DHT22;2995;-31.998;115.906;2023-02-26T08:11:45;34.00;87.10
5940;DHT22;2995;-31.998;115.906;2023-02-26T08:14:17;34.00;88.60
5940;DHT22;2995;-31.998;115.906;2023-02-26T08:16:48;34.00;88.30
5940;DHT22;2995;-31.998;115.906;2023-02-26T08:19:20;33.90;88.30
5940;DHT22;2995;-31.998;115.906;2023-02-26T08:21:51;33.90;88.00
5940;DHT22;2995;-31.998;115.906;2023-02-26T08:24:25;33.60;87.70
5940;DHT22;2995;-31.998;115.906;2023-02-26T08:26:56;33.30;87.80
5940;DHT22;2995;-31.998;115.906;2023-02-26T08:29:27;33.20;88.00
5940;DHT22;2995;-31.998;115.906;2023-02-26T08:31:59;33.10;88.50
5940;DHT22;2995;-31.998;115.906;2023-02-26T08:34:30;33.20;89.10
5940;DHT22;2995;-31.998;115.906;2023-02-26T08:37:01;33.00;89.20
5940;DHT22;2995;-31.998;115.906;2023-02-26T08:39:34;33.00;89.20
5940;DHT22;2995;-31.998;115.906;2023-02-26T08:42:06;33.10;88.80
5940;DHT22;2995;-31.998;115.906;2023-02-26T08:44:39;33.00;88.70
5940;DHT22;2995;-31.998;115.906;2023-02-26T08:47:10;33.10;88.80
5940;DHT22;2995;-31.998;115.906;2023-02-26T08:49:41;32.90;88.80
5940;DHT22;2995;-31.998;115.906;2023-02-26T08:52:12;32.90;88.60
5940;DHT22;2995;-31.998;115.906;2023-02-26T08:54:46;32.90;89.10
5940;DHT22;2995;-31.998;115.906;2023-02-26T08:57:17;32.70;89.70
5940;DHT22;2995;-31.998;115.906;2023-02-26T08:59:49;32.60;89.50
5940;DHT22;2995;-31.998;115.906;2023-02-26T09:02:23;32.70;90.10
5940;DHT22;2995;-31.998;115.906;2023-02-26T09:04:54;32.60;90.60
5940;DHT22;2995;-31.998;115.906;2023-02-26T09:07:25;32.70;90.50
5940;DHT22;2995;-31.998;115.906;2023-02-26T09:09:58;32.60;90.30
5940;DHT22;2995;-31.998;115.906;2023-02-26T09:12:31;32.60;90.90
5940;DHT22;2995;-31.998;115.906;2023-02-26T09:15:03;32.50;90.70
5940;DHT22;2995;-31.998;115.906;2023-02-26T09:17:34;32.40;90.80
5940;DHT22;2995;-31.998;115.906;2023-02-26T09:20:06;32.30;90.90
5940;DHT22;2995;-31.998;115.906;2023-02-26T09:22:38;32.20;91.20
5940;DHT22;2995;-31.998;115.906;2023-02-26T09:25:12;32.20;90.60
5940;DHT22;2995;-31.998;115.906;2023-02-26T09:27:43;32.10;90.70
5940;DHT22;2995;-31.998;115.906;2023-02-26T09:30:15;32.00;90.70
5940;DHT22;2995;-31.998;115.906;2023-02-26T09:32:46;32.10;90.90
5940;DHT22;2995;-31.998;115.906;2023-02-26T09:35:18;32.00;91.20
5940;DHT22;2995;-31.998;115.906;2023-02-26T09:37:49;32.00;91.10
5940;DHT22;2995;-31.998;115.906;2023-02-26T09:40:29;32.00;91.00
5940;DHT22;2995;-31.998;115.906;2023-02-26T09:45:54;31.80;91.20
5940;DHT22;2995;-31.998;115.906;2023-02-26T09:48:28;31.80;91.20
5940;DHT22;2995;-31.998;115.906;2023-02-26T09:51:00;31.80;91.00
5940;DHT22;2995;-31.998;115.906;2023-02-26T09:53:33;31.80;89.60
5940;DHT22;2995;-31.998;115.906;2023-02-26T09:56:10;31.70;89.20
5940;DHT22;2995;-31.998;115.906;2023-02-26T09:58:44;31.70;89.80
5940;DHT22;2995;-31.998;115.906;2023-02-26T10:01:20;31.60;89.50
5940;DHT22;2995;-31.998;115.906;2023-02-26T10:04:00;31.60;88.80
5940;DHT22;2995;-31.998;115.906;2023-02-26T10:06:44;31.60;88.60
5940;DHT22;2995;-31.998;115.906;2023-02-26T10:09:28;31.40;88.40
5940;DHT22;2995;-31.998;115.906;2023-02-26T10:12:04;31.30;88.80
5940;DHT22;2995;-31.998;115.906;2023-02-26T10:14:41;31.20;89.30
5940;DHT22;2995;-31.998;115.906;2023-02-26T10:17:18;31.20;89.20
5940;DHT22;2995;-31.998;115.906;2023-02-26T10:19:53;31.00;89.30
5940;DHT22;2995;-31.998;115.906;2023-02-26T10:22:29;30.90;89.40
5940;DHT22;2995;-31.998;115.906;2023-02-26T10:25:08;30.70;88.80
5940;DHT22;2995;-31.998;115.906;2023-02-26T10:27:51;30.70;88.90
5940;DHT22;2995;-31.998;115.906;2023-02-26T10:30:31;30.50;88.00
5940;DHT22;2995;-31.998;115.906;2023-02-26T10:33:11;30.30;88.50
5940;DHT22;2995;-31.998;115.906;2023-02-26T10:35:49;30.30;89.60
5940;DHT22;2995;-31.998;115.906;2023-02-26T10:38:26;30.20;88.90
5940;DHT22;2995;-31.998;115.906;2023-02-26T10:43:50;29.90;89.80
5940;DHT22;2995;-31.998;115.906;2023-02-26T10:46:29;29.80;89.70
5940;DHT22;2995;-31.998;115.906;2023-02-26T10:49:22;29.70;89.00
5940;DHT22;2995;-31.998;115.906;2023-02-26T10:51:59;29.50;89.40
5940;DHT22;2995;-31.998;115.906;2023-02-26T10:54:34;29.50;89.40
5940;DHT22;2995;-31.998;115.906;2023-02-26T10:57:07;29.50;90.00
5940;DHT22;2995;-31.998;115.906;2023-02-26T10:59:41;29.40;90.20
5940;DHT22;2995;-31.998;115.906;2023-02-26T11:02:30;29.30;89.60
5940;DHT22;2995;-31.998;115.906;2023-02-26T11:05:04;29.20;89.90
5940;DHT22;2995;-31.998;115.906;2023-02-26T11:07:37;29.10;90.20
5940;DHT22;2995;-31.998;115.906;2023-02-26T11:10:15;29.10;90.00
5940;DHT22;2995;-31.998;115.906;2023-02-26T11:12:47;29.10;90.20
5940;DHT22;2995;-31.998;115.906;2023-02-26T11:15:21;29.00;90.40
5940;DHT22;2995;-31.998;115.906;2023-02-26T11:17:55;28.90;90.40
5940;DHT22;2995;-31.998;115.906;2023-02-26T11:20:33;28.90;90.50
5940;DHT22;2995;-31.998;115.906;2023-02-26T11:23:12;28.80;90.50
5940;DHT22;2995;-31.998;115.906;2023-02-26T11:25:44;28.70;90.20
5940;DHT22;2995;-31.998;115.906;2023-02-26T11:28:24;28.60;90.40
5940;DHT22;2995;-31.998;115.906;2023-02-26T11:31:01;28.60;90.30
5940;DHT22;2995;-31.998;115.906;2023-02-26T11:33:37;28.50;90.30
5940;DHT22;2995;-31.998;115.906;2023-02-26T11:36:11;28.30;90.10
5940;DHT22;2995;-31.998;115.906;2023-02-26T11:38:46;28.20;90.10
5940;DHT22;2995;-31.998;115.906;2023-02-26T11:41:22;28.10;90.50
5940;DHT22;2995;-31.998;115.906;2023-02-26T11:44:02;28.00;90.60
5940;DHT22;2995;-31.998;115.906;2023-02-26T11:46:41;28.00;90.90
5940;DHT22;2995;-31.998;115.906;2023-02-26T11:49:15;27.90;91.10
5940;DHT22;2995;-31.998;115.906;2023-02-26T11:51:48;27.80;91.50
5940;DHT22;2995;-31.998;115.906;2023-02-26T11:54:30;27.70;91.70
5940;DHT22;2995;-31.998;115.906;2023-02-26T11:57:06;27.50;92.10
5940;DHT22;2995;-31.998;115.906;2023-02-26T11:59:47;27.60;92.20
5940;DHT22;2995;-31.998;115.906;2023-02-26T12:02:23;27.40;92.30
5940;DHT22;2995;-31.998;115.906;2023-02-26T12:04:57;27.40;92.40
5940;DHT22;2995;-31.998;115.906;2023-02-26T12:07:30;27.40;92.50
5940;DHT22;2995;-31.998;115.906;2023-02-26T12:10:02;27.40;92.70
5940;DHT22;2995;-31.998;115.906;2023-02-26T12:12:51;27.30;93.00
5940;DHT22;2995;-31.998;115.906;2023-02-26T12:15:31;27.30;92.90
5940;DHT22;2995;-31.998;115.906;2023-02-26T12:18:25;27.30;93.10
5940;DHT22;2995;-31.998;115.906;2023-02-26T12:21:08;27.20;93.30
5940;DHT22;2995;-31.998;115.906;2023-02-26T12:24:06;27.20;93.40
5940;DHT22;2995;-31.998;115.906;2023-02-26T12:26:42;27.20;93.40
5940;DHT22;2995;-31.998;115.906;2023-02-26T12:29:38;27.20;93.40
5940;DHT22;2995;-31.998;115.906;2023-02-26T12:32:27;27.10;93.30
5940;DHT22;2995;-31.998;115.906;2023-02-26T12:35:21;27.00;93.30
5940;DHT22;2995;-31.998;115.906;2023-02-26T12:43:59;26.90;93.00
5940;DHT22;2995;-31.998;115.906;2023-02-26T12:46:43;26.90;93.00
5940;DHT22;2995;-31.998;115.906;2023-02-26T12:49:40;26.90;93.30
5940;DHT22;2995;-31.998;115.906;2023-02-26T12:55:20;26.90;93.10
5940;DHT22;2995;-31.998;115.906;2023-02-26T12:58:13;26.80;93.30
5940;DHT22;2995;-31.998;115.906;2023-02-26T13:01:03;26.80;93.40
5940;DHT22;2995;-31.998;115.906;2023-02-26T13:03:50;26.80;93.40
5940;DHT22;2995;-31.998;115.906;2023-02-26T13:09:48;26.60;93.70
5940;DHT22;2995;-31.998;115.906;2023-02-26T13:12:36;26.70;93.80
5940;DHT22;2995;-31.998;115.906;2023-02-26T13:15:24;26.60;94.30
5940;DHT22;2995;-31.998;115.906;2023-02-26T13:18:03;26.60;94.20
5940;DHT22;2995;-31.998;115.906;2023-02-26T13:20:38;26.70;94.50
5940;DHT22;2995;-31.998;115.906;2023-02-26T13:23:14;26.60;94.60
5940;DHT22;2995;-31.998;115.906;2023-02-26T13:25:52;26.60;94.80
5940;DHT22;2995;-31.998;115.906;2023-02-26T13:28:35;26.50;95.10
5940;DHT22;2995;-31.998;115.906;2023-02-26T13:31:10;26.40;95.30
5940;DHT22;2995;-31.998;115.906;2023-02-26T13:33:43;26.30;95.40
5940;DHT22;2995;-31.998;115.906;2023-02-26T13:36:16;26.20;95.60
5940;DHT22;2995;-31.998;115.906;2023-02-26T13:39:02;26.10;95.60
5940;DHT22;2995;-31.998;115.906;2023-02-26T13:41:46;26.00;95.80
5940;DHT22;2995;-31.998;115.906;2023-02-26T13:44:28;26.10;95.90
5940;DHT22;2995;-31.998;115.906;2023-02-26T13:47:14;26.10;96.10
5940;DHT22;2995;-31.998;115.906;2023-02-26T13:50:03;26.00;96.60
5940;DHT22;2995;-31.998;115.906;2023-02-26T13:52:47;25.80;96.90
5940;DHT22;2995;-31.998;115.906;2023-02-26T13:55:37;25.80;97.20
5940;DHT22;2995;-31.998;115.906;2023-02-26T13:58:35;25.70;97.50
5940;DHT22;2995;-31.998;115.906;2023-02-26T14:01:12;25.80;97.40
5940;DHT22;2995;-31.998;115.906;2023-02-26T14:03:48;25.90;97.80
5940;DHT22;2995;-31.998;115.906;2023-02-26T14:06:37;25.80;98.10
5940;DHT22;2995;-31.998;115.906;2023-02-26T14:09:34;25.70;98.30
5940;DHT22;2995;-31.998;115.906;2023-02-26T14:12:24;25.80;98.60
5940;DHT22;2995;-31.998;115.906;2023-02-26T14:18:24;25.70;99.00
5940;DHT22;2995;-31.998;115.906;2023-02-26T14:21:30;25.80;99.00
5940;DHT22;2995;-31.998;115.906;2023-02-26T14:24:11;25.60;99.30
5940;DHT22;2995;-31.998;115.906;2023-02-26T14:26:47;25.60;99.50
5940;DHT22;2995;-31.998;115.906;2023-02-26T14:29:25;25.70;99.50
5940;DHT22;2995;-31.998;115.906;2023-02-26T14:32:13;25.70;99.60
5940;DHT22;2995;-31.998;115.906;2023-02-26T14:34:52;25.80;99.50
5940;DHT22;2995;-31.998;115.906;2023-02-26T14:37:26;25.80;99.60
5940;DHT22;2995;-31.998;115.906;2023-02-26T14:40:01;25.60;99.90
5940;DHT22;2995;-31.998;115.906;2023-02-26T14:42:39;25.40;99.90
5940;DHT22;2995;-31.998;115.906;2023-02-26T14:45:22;25.50;99.90
5940;DHT22;2995;-31.998;115.906;2023-02-26T14:47:56;25.60;99.90
5940;DHT22;2995;-31.998;115.906;2023-02-26T14:50:35;25.60;99.90
5940;DHT22;2995;-31.998;115.906;2023-02-26T14:56:16;25.70;99.90
5940;DHT22;2995;-31.998;115.906;2023-02-26T14:59:03;25.60;99.90
5940;DHT22;2995;-31.998;115.906;2023-02-26T15:01:47;25.70;99.90
5940;DHT22;2995;-31.998;115.906;2023-02-26T15:07:45;25.50;99.90
5940;DHT22;2995;-31.998;115.906;2023-02-26T15:10:28;25.50;99.90
5940;DHT22;2995;-31.998;115.906;2023-02-26T15:16:09;25.30;99.90
5940;DHT22;2995;-31.998;115.906;2023-02-26T15:18:58;25.30;99.90
5940;DHT22;2995;-31.998;115.906;2023-02-26T15:21:46;25.30;99.90
5940;DHT22;2995;-31.998;115.906;2023-02-26T15:24:23;25.30;99.90
5940;DHT22;2995;-31.998;115.906;2023-02-26T15:26:56;25.30;99.90
5940;DHT22;2995;-31.998;115.906;2023-02-26T15:29:30;25.20;99.90
5940;DHT22;2995;-31.998;115.906;2023-02-26T15:32:13;25.10;99.90
5940;DHT22;2995;-31.998;115.906;2023-02-26T15:34:46;24.90;99.90
5940;DHT22;2995;-31.998;115.906;2023-02-26T15:37:22;24.80;99.90
5940;DHT22;2995;-31.998;115.906;2023-02-26T15:39:55;25.10;99.90
5940;DHT22;2995;-31.998;115.906;2023-02-26T15:42:29;25.10;99.90
5940;DHT22;2995;-31.998;115.906;2023-02-26T15:45:07;25.00;99.90
5940;DHT22;2995;-31.998;115.906;2023-02-26T15:47:41;25.10;99.90
5940;DHT22;2995;-31.998;115.906;2023-02-26T15:50:15;24.90;99.90
5940;DHT22;2995;-31.998;115.906;2023-02-26T15:52:52;24.70;99.90
5940;DHT22;2995;-31.998;115.906;2023-02-26T15:55:27;24.70;99.90
5940;DHT22;2995;-31.998;115.906;2023-02-26T15:58:02;24.80;99.90
5940;DHT22;2995;-31.998;115.906;2023-02-26T16:00:34;24.80;99.90
5940;DHT22;2995;-31.998;115.906;2023-02-26T16:03:08;24.70;99.90
5940;DHT22;2995;-31.998;115.906;2023-02-26T16:05:39;24.60;99.90
5940;DHT22;2995;-31.998;115.906;2023-02-26T16:08:14;24.50;99.90
5940;DHT22;2995;-31.998;115.906;2023-02-26T16:10:48;24.60;99.90
5940;DHT22;2995;-31.998;115.906;2023-02-26T16:13:27;24.50;99.90
5940;DHT22;2995;-31.998;115.906;2023-02-26T16:16:03;24.40;99.90
5940;DHT22;2995;-31.998;115.906;2023-02-26T16:18:38;24.60;99.90
5940;DHT22;2995;-31.998;115.906;2023-02-26T16:21:13;24.60;99.90
5940;DHT22;2995;-31.998;115.906;2023-02-26T16:23:48;24.60;99.90
5940;DHT22;2995;-31.998;115.906;2023-02-26T16:26:27;24.60;99.90
5940;DHT22;2995;-31.998;115.906;2023-02-26T16:29:01;24.70;99.90
5940;DHT22;2995;-31.998;115.906;2023-02-26T16:31:34;24.60;99.90
5940;DHT22;2995;-31.998;115.906;2023-02-26T16:34:20;24.60;99.90
5940;DHT22;2995;-31.998;115.906;2023-02-26T16:36:54;24.60;99.90
5940;DHT22;2995;-31.998;115.906;2023-02-26T16:39:28;24.40;99.90
5940;DHT22;2995;-31.998;115.906;2023-02-26T16:42:11;24.30;99.90
5940;DHT22;2995;-31.998;115.906;2023-02-26T16:44:56;24.40;99.90